Terminal Aerodrome Forecast
Issued by NWS

Home | Current Version | Previous Version | Text Only | Print | Product List | Glossary On
Versions: 1 2 3 4 5 6 7 8 9 10 11 12 13 14 15 16 17 18 19 20 21 22 23 24 25 26 27 28
000
FTUS43 KDMX 021738
TAFFOD
TAF
KFOD 021738Z 0218/0318 15009KT P6SM BKN090
     FM030600 16014KT 3SM -SNPL BKN015 OVC040
     FM031400 25010KT 2SM -FZDZ BR OVC010=

USA.gov is the U.S. government's official web portal to all federal, state and local government web resources and services.